createdAt,value
2022-07-29T00:00:59.904Z,26.41
2022-07-29T00:03:26.944Z,26.35
2022-07-29T00:05:54.281Z,26.38
2022-07-29T00:08:21.286Z,26.39
2022-07-29T00:10:48.336Z,26.23
2022-07-29T00:13:15.052Z,26.26
2022-07-29T00:15:41.880Z,26.21
2022-07-29T00:18:08.863Z,26.37
2022-07-29T00:20:35.587Z,26.29
2022-07-29T00:23:02.607Z,26.27
2022-07-29T00:25:29.579Z,26.26
2022-07-29T00:27:57.647Z,26.17
2022-07-29T00:30:24.347Z,26.26
2022-07-29T00:32:51.343Z,26.38
2022-07-29T00:35:36.616Z,26.31
2022-07-29T00:38:03.742Z,26.39
2022-07-29T00:40:30.536Z,26.38
2022-07-29T00:42:57.351Z,26.52
2022-07-29T00:45:26.453Z,26.56
2022-07-29T00:47:53.280Z,26.58
2022-07-29T00:50:20.124Z,26.67
2022-07-29T00:52:47.155Z,26.61
2022-07-29T00:55:14.492Z,26.67
2022-07-29T00:57:41.495Z,26.76
2022-07-29T01:00:11.102Z,26.80
2022-07-29T01:02:38.106Z,26.83
2022-07-29T01:05:05.500Z,26.86
2022-07-29T01:07:33.338Z,26.92
2022-07-29T01:10:00.205Z,26.94
2022-07-29T01:12:27.270Z,26.94
2022-07-29T01:14:54.563Z,27.13
2022-07-29T01:17:28.298Z,26.97
2022-07-29T01:20:08.803Z,27.14
2022-07-29T01:22:35.532Z,27.08
2022-07-29T01:25:13.315Z,27.11
2022-07-29T01:27:43.016Z,27.22
2022-07-29T01:30:11.415Z,27.21
2022-07-29T01:32:40.882Z,27.26
2022-07-29T01:35:11.820Z,27.17
2022-07-29T01:37:38.768Z,27.30
2022-07-29T01:40:06.346Z,27.23
2022-07-29T01:42:35.851Z,27.35
2022-07-29T01:45:05.626Z,27.25
2022-07-29T01:47:36.467Z,27.12
2022-07-29T01:50:04.885Z,27.27
2022-07-29T01:52:36.065Z,27.24
2022-07-29T01:55:06.012Z,27.24
2022-07-29T01:57:33.105Z,27.31
2022-07-29T01:59:59.879Z,27.38
2022-07-29T02:02:27.540Z,27.36
2022-07-29T02:04:54.628Z,27.22
2022-07-29T02:07:22.294Z,27.33
2022-07-29T02:09:51.308Z,27.31
2022-07-29T02:12:19.461Z,27.35
2022-07-29T02:15:07.616Z,27.35
2022-07-29T02:17:40.987Z,27.24
2022-07-29T02:20:08.174Z,27.31
2022-07-29T02:22:35.158Z,27.37
2022-07-29T02:25:03.722Z,27.35
2022-07-29T02:27:30.790Z,27.33
2022-07-29T02:29:57.529Z,27.40
2022-07-29T02:32:24.782Z,27.34
2022-07-29T02:34:51.509Z,27.33
2022-07-29T02:37:18.368Z,27.28
2022-07-29T02:39:45.784Z,27.21
2022-07-29T02:42:13.938Z,27.22
2022-07-29T02:44:40.702Z,27.18
2022-07-29T02:47:07.658Z,27.09
2022-07-29T02:49:46.833Z,27.01
2022-07-29T02:52:16.276Z,27.08
2022-07-29T02:54:47.650Z,27.10
2022-07-29T02:57:16.977Z,27.10
2022-07-29T02:59:43.719Z,27.01
2022-07-29T03:02:11.093Z,27.06
2022-07-29T03:04:38.158Z,27.06
2022-07-29T03:07:06.374Z,27.06
2022-07-29T03:09:34.162Z,27.07
2022-07-29T03:12:01.302Z,27.06
2022-07-29T03:14:28.028Z,27.06
2022-07-29T03:16:54.798Z,27.05
2022-07-29T03:19:21.791Z,26.94
2022-07-29T03:21:48.535Z,26.94
2022-07-29T03:24:34.761Z,26.82
2022-07-29T03:27:03.426Z,26.87
2022-07-29T03:29:33.846Z,26.95
2022-07-29T03:32:08.111Z,26.98
2022-07-29T03:34:35.482Z,26.95
2022-07-29T03:37:02.538Z,26.88
2022-07-29T03:39:30.952Z,26.89
2022-07-29T03:41:57.920Z,26.86
2022-07-29T03:44:25.004Z,26.85
2022-07-29T03:46:52.447Z,26.92
2022-07-29T03:49:20.061Z,26.87
2022-07-29T03:51:47.153Z,26.89
2022-07-29T03:54:13.910Z,26.85
2022-07-29T03:56:41.283Z,26.81
2022-07-29T03:59:08.360Z,26.90
2022-07-29T04:01:35.598Z,26.74
2022-07-29T04:04:02.945Z,26.78
2022-07-29T04:06:29.787Z,26.82
2022-07-29T04:08:56.533Z,26.77
2022-07-29T04:11:23.527Z,26.83
2022-07-29T04:13:50.256Z,26.85
2022-07-29T04:16:17.280Z,26.89
2022-07-29T04:18:44.340Z,26.77
2022-07-29T04:21:11.121Z,26.82
2022-07-29T04:23:53.128Z,26.90
2022-07-29T04:26:21.102Z,26.85
2022-07-29T04:28:47.908Z,26.87
2022-07-29T04:31:14.748Z,26.85
2022-07-29T04:33:41.841Z,26.77
2022-07-29T04:36:28.393Z,26.85
2022-07-29T04:38:55.816Z,26.88
2022-07-29T04:41:22.530Z,26.77
2022-07-29T04:43:50.834Z,26.93
2022-07-29T04:46:19.310Z,26.87
2022-07-29T04:48:46.798Z,26.87
2022-07-29T04:51:13.706Z,26.92
2022-07-29T04:53:40.736Z,26.92
2022-07-29T04:56:07.489Z,26.99
2022-07-29T04:58:38.377Z,27.05
2022-07-29T05:01:05.476Z,26.90
2022-07-29T05:03:32.353Z,27.07
2022-07-29T05:05:59.118Z,27.16
2022-07-29T05:08:26.101Z,27.22
2022-07-29T05:10:52.833Z,27.14
2022-07-29T05:13:19.553Z,27.17
2022-07-29T05:15:46.627Z,27.28
2022-07-29T05:18:13.951Z,27.28
2022-07-29T05:20:40.894Z,27.30
2022-07-29T05:23:07.881Z,27.41
2022-07-29T05:25:43.252Z,27.39
2022-07-29T05:28:11.276Z,27.30
2022-07-29T05:30:38.072Z,27.33
2022-07-29T05:33:04.884Z,27.41
2022-07-29T05:35:31.881Z,27.33
2022-07-29T05:37:58.672Z,27.37
2022-07-29T05:40:26.425Z,27.46
2022-07-29T05:42:53.484Z,27.50
2022-07-29T05:45:20.218Z,27.52
2022-07-29T05:47:47.084Z,27.44
2022-07-29T05:50:14.187Z,27.49
2022-07-29T05:52:40.915Z,27.63
2022-07-29T05:55:07.868Z,27.46
2022-07-29T05:57:34.867Z,27.55
2022-07-29T06:00:01.657Z,27.44
2022-07-29T06:02:28.462Z,27.63
2022-07-29T06:04:55.541Z,27.73
2022-07-29T06:07:22.554Z,27.68
2022-07-29T06:09:49.275Z,27.78
2022-07-29T06:12:16.293Z,27.74
2022-07-29T06:14:43.266Z,27.94
2022-07-29T06:17:12.620Z,27.94
2022-07-29T06:19:39.702Z,27.96
2022-07-29T06:22:06.473Z,28.08
2022-07-29T06:24:33.258Z,27.98
2022-07-29T06:27:00.277Z,27.83
2022-07-29T06:29:26.994Z,28.20
2022-07-29T06:31:53.762Z,28.36
2022-07-29T06:34:20.878Z,28.40
2022-07-29T06:36:47.669Z,28.72
2022-07-29T06:39:15.593Z,29.14
2022-07-29T06:41:42.806Z,29.40
2022-07-29T06:44:12.658Z,29.70
2022-07-29T06:46:39.684Z,29.86
2022-07-29T06:49:06.761Z,30.05
2022-07-29T06:51:33.775Z,30.43
2022-07-29T06:54:03.396Z,30.55
2022-07-29T06:56:31.757Z,30.73
2022-07-29T06:58:58.627Z,30.87
2022-07-29T07:01:25.505Z,30.87
2022-07-29T07:03:52.587Z,31.16
2022-07-29T07:06:19.354Z,31.13
2022-07-29T07:08:46.263Z,31.47
2022-07-29T07:11:14.199Z,31.77
2022-07-29T07:13:41.002Z,31.99
2022-07-29T07:16:07.817Z,31.90
2022-07-29T07:18:34.804Z,32.00
2022-07-29T07:21:01.531Z,31.91
2022-07-29T07:23:28.269Z,31.91
2022-07-29T07:25:55.274Z,31.82
2022-07-29T07:28:24.880Z,31.89
2022-07-29T07:30:52.730Z,32.48
2022-07-29T07:33:19.911Z,32.50
2022-07-29T07:35:46.811Z,32.59
2022-07-29T07:38:13.659Z,33.09
2022-07-29T07:40:41.018Z,33.33
2022-07-29T07:43:07.724Z,33.54
2022-07-29T07:45:37.001Z,33.30
2022-07-29T07:48:04.393Z,33.71
2022-07-29T07:50:31.190Z,33.80
2022-07-29T07:52:59.001Z,34.26
2022-07-29T07:55:26.584Z,34.07
2022-07-29T07:57:53.542Z,34.33
2022-07-29T08:00:23.014Z,34.30
2022-07-29T08:02:51.218Z,34.23
2022-07-29T08:05:18.407Z,34.67
2022-07-29T08:07:46.230Z,34.68
2022-07-29T08:10:13.957Z,34.97
2022-07-29T08:12:40.848Z,34.80
2022-07-29T08:15:08.693Z,35.01
2022-07-29T08:17:35.828Z,34.96
2022-07-29T08:20:02.942Z,34.56
2022-07-29T08:22:30.137Z,35.18
2022-07-29T08:24:57.841Z,35.37
2022-07-29T08:27:42.910Z,35.53
2022-07-29T08:30:11.397Z,35.66
2022-07-29T08:32:55.731Z,35.67
2022-07-29T08:35:23.812Z,35.47
2022-07-29T08:37:50.605Z,35.59
2022-07-29T08:40:17.534Z,35.31
2022-07-29T08:42:44.818Z,35.87
2022-07-29T08:45:11.707Z,35.92
2022-07-29T08:47:40.733Z,36.08
2022-07-29T08:50:08.451Z,36.28
2022-07-29T08:52:37.066Z,36.40
2022-07-29T08:55:04.233Z,35.88
2022-07-29T08:57:31.225Z,36.25
2022-07-29T09:00:06.463Z,36.29
2022-07-29T09:02:36.947Z,36.53
2022-07-29T09:05:03.901Z,36.80
2022-07-29T09:07:34.528Z,36.61
2022-07-29T09:10:02.319Z,36.54
2022-07-29T09:12:31.939Z,36.46
2022-07-29T09:15:02.150Z,36.36
2022-07-29T09:17:44.925Z,36.53
2022-07-29T09:20:12.958Z,36.57
2022-07-29T09:22:42.066Z,36.82
2022-07-29T09:25:09.411Z,37.03
2022-07-29T09:27:37.005Z,36.97
2022-07-29T09:30:05.189Z,37.21
2022-07-29T09:32:32.366Z,37.04
2022-07-29T09:35:15.553Z,37.19
2022-07-29T09:37:42.321Z,37.46
2022-07-29T09:40:16.927Z,36.81
2022-07-29T09:42:44.068Z,37.16
2022-07-29T09:45:11.410Z,37.05
2022-07-29T09:47:58.457Z,37.26
2022-07-29T09:50:35.736Z,37.74
2022-07-29T09:53:02.504Z,37.44
2022-07-29T09:55:29.521Z,37.31
2022-07-29T09:57:56.248Z,37.31
2022-07-29T10:00:24.073Z,37.54
2022-07-29T10:02:51.410Z,37.63
2022-07-29T10:05:26.141Z,37.74
2022-07-29T10:07:54.472Z,37.71
2022-07-29T10:10:27.894Z,37.53
2022-07-29T10:13:06.957Z,37.33
2022-07-29T10:15:41.793Z,37.78
2022-07-29T10:18:10.167Z,37.64
2022-07-29T10:20:36.921Z,37.78
2022-07-29T10:23:03.659Z,37.15
2022-07-29T10:25:30.688Z,38.00
2022-07-29T10:27:57.499Z,38.17
2022-07-29T10:30:25.760Z,38.32
2022-07-29T10:32:55.862Z,38.25
2022-07-29T10:35:22.608Z,38.29
2022-07-29T10:37:49.304Z,38.02
2022-07-29T10:40:43.728Z,38.08
2022-07-29T10:43:24.112Z,37.92
2022-07-29T10:45:56.306Z,38.44
2022-07-29T10:48:24.940Z,38.32
2022-07-29T10:50:56.383Z,38.23
2022-07-29T10:53:24.499Z,38.25
2022-07-29T10:55:52.914Z,38.42
2022-07-29T10:58:21.373Z,38.51
2022-07-29T11:00:49.344Z,38.45
2022-07-29T11:03:35.424Z,38.63
2022-07-29T11:06:02.784Z,37.91
2022-07-29T11:08:35.845Z,38.04
2022-07-29T11:11:22.212Z,38.50
2022-07-29T11:13:54.684Z,38.38
2022-07-29T11:16:24.982Z,38.25
2022-07-29T11:19:10.929Z,38.63
2022-07-29T11:21:55.273Z,38.06
2022-07-29T11:24:54.345Z,37.81
2022-07-29T11:27:23.140Z,37.65
2022-07-29T11:29:50.504Z,36.81
2022-07-29T11:32:22.696Z,36.64
2022-07-29T11:34:51.619Z,36.47
2022-07-29T11:37:18.959Z,36.83
2022-07-29T11:39:47.946Z,36.93
2022-07-29T11:42:28.242Z,37.13
2022-07-29T11:45:42.696Z,37.43
2022-07-29T11:48:28.693Z,37.73
2022-07-29T11:50:48.545Z,38.00
2022-07-29T11:53:16.076Z,37.76
2022-07-29T11:55:51.033Z,37.84
2022-07-29T11:58:24.985Z,37.16
2022-07-29T12:03:40.376Z,36.79
2022-07-29T12:06:15.000Z,37.03
2022-07-29T12:08:43.731Z,36.80
2022-07-29T12:11:17.876Z,36.42
2022-07-29T12:13:49.348Z,36.30
2022-07-29T12:16:29.302Z,36.88
2022-07-29T12:18:58.052Z,36.90
2022-07-29T12:21:25.790Z,37.46
2022-07-29T12:23:57.059Z,37.52
2022-07-29T12:26:29.109Z,37.53
2022-07-29T12:28:56.726Z,37.76
2022-07-29T12:31:44.032Z,37.64
2022-07-29T12:34:12.138Z,37.65
2022-07-29T12:36:38.981Z,37.51
2022-07-29T12:39:05.793Z,37.13
2022-07-29T12:41:34.280Z,37.09
2022-07-29T12:44:01.031Z,36.73
2022-07-29T12:46:27.850Z,37.26
2022-07-29T12:48:59.611Z,36.88
2022-07-29T12:51:30.879Z,36.99
2022-07-29T12:54:15.486Z,37.35
2022-07-29T12:56:45.418Z,37.28
2022-07-29T12:59:20.343Z,37.48
2022-07-29T13:01:50.604Z,37.26
2022-07-29T13:04:27.811Z,37.38
2022-07-29T13:07:06.763Z,37.60
2022-07-29T13:09:51.957Z,37.70
2022-07-29T13:12:18.703Z,37.85
2022-07-29T13:14:47.112Z,37.75
2022-07-29T13:17:15.033Z,37.63
2022-07-29T13:19:42.963Z,37.93
2022-07-29T13:22:11.055Z,37.79
2022-07-29T13:24:47.010Z,37.64
2022-07-29T13:27:18.163Z,37.35
2022-07-29T13:29:45.033Z,37.77
2022-07-29T13:32:13.089Z,37.41
2022-07-29T13:34:40.445Z,37.31
2022-07-29T13:37:07.503Z,36.80
2022-07-29T13:39:34.359Z,37.08
2022-07-29T13:42:02.043Z,37.32
2022-07-29T13:44:28.884Z,36.73
2022-07-29T13:46:55.762Z,36.76
2022-07-29T13:49:23.507Z,36.76
2022-07-29T13:51:50.486Z,36.67
2022-07-29T13:54:17.301Z,37.02
2022-07-29T13:56:44.458Z,36.99
2022-07-29T13:59:13.198Z,36.99
2022-07-29T14:01:42.672Z,37.00
2022-07-29T14:04:10.433Z,37.12
2022-07-29T14:06:40.583Z,36.75
2022-07-29T14:09:09.486Z,36.59
2022-07-29T14:11:36.787Z,36.41
2022-07-29T14:14:03.532Z,36.21
2022-07-29T14:16:30.399Z,36.42
2022-07-29T14:18:57.491Z,36.21
2022-07-29T14:21:24.199Z,36.31
2022-07-29T14:23:53.119Z,36.47
2022-07-29T14:26:21.591Z,35.96
2022-07-29T14:28:50.897Z,36.24
2022-07-29T14:31:17.786Z,36.08
2022-07-29T14:33:46.117Z,36.02
2022-07-29T14:36:16.406Z,36.04
2022-07-29T14:38:43.537Z,36.18
2022-07-29T14:41:10.679Z,35.73
2022-07-29T14:43:37.471Z,35.40
2022-07-29T14:46:08.362Z,35.62
2022-07-29T14:48:36.077Z,35.91
2022-07-29T14:51:04.871Z,36.19
2022-07-29T14:53:31.719Z,36.11
2022-07-29T14:56:10.287Z,36.06
2022-07-29T14:58:51.463Z,36.35
2022-07-29T15:01:20.101Z,36.47
2022-07-29T15:03:46.931Z,35.91
2022-07-29T15:06:13.672Z,35.29
2022-07-29T15:08:40.902Z,35.77
2022-07-29T15:11:07.668Z,35.88
2022-07-29T15:13:34.674Z,35.92
2022-07-29T15:16:01.695Z,35.74
2022-07-29T15:18:28.397Z,35.74
2022-07-29T15:20:55.146Z,35.72
2022-07-29T15:23:22.173Z,35.91
2022-07-29T15:25:49.140Z,35.88
2022-07-29T15:28:15.856Z,35.96
2022-07-29T15:30:42.976Z,36.03
2022-07-29T15:33:12.478Z,35.90
2022-07-29T15:35:40.393Z,36.05
2022-07-29T15:38:07.994Z,36.01
2022-07-29T15:40:37.163Z,35.81
2022-07-29T15:43:07.032Z,35.80
2022-07-29T15:45:40.237Z,35.92
2022-07-29T15:48:07.975Z,35.73
2022-07-29T15:50:35.324Z,35.40
2022-07-29T15:53:03.020Z,35.56
2022-07-29T15:55:29.744Z,35.38
2022-07-29T15:58:00.657Z,35.32
2022-07-29T16:00:27.676Z,35.40
2022-07-29T16:02:54.713Z,35.26
2022-07-29T16:05:23.227Z,35.36
2022-07-29T16:07:50.465Z,35.39
2022-07-29T16:10:17.474Z,35.55
2022-07-29T16:12:44.194Z,35.50
2022-07-29T16:15:12.017Z,35.46
2022-07-29T16:17:39.221Z,35.42
2022-07-29T16:20:06.563Z,35.18
2022-07-29T16:22:33.288Z,35.11
2022-07-29T16:25:00.318Z,35.33
2022-07-29T16:27:35.348Z,35.46
2022-07-29T16:30:05.646Z,35.44
2022-07-29T16:32:32.398Z,35.34
2022-07-29T16:34:59.142Z,35.32
2022-07-29T16:37:26.181Z,35.25
2022-07-29T16:39:55.604Z,35.31
2022-07-29T16:42:44.341Z,35.14
2022-07-29T16:45:09.736Z,35.04
2022-07-29T16:47:36.472Z,35.03
2022-07-29T16:50:03.537Z,34.96
2022-07-29T16:52:30.623Z,35.04
2022-07-29T16:54:57.340Z,34.90
2022-07-29T16:57:24.654Z,34.90
2022-07-29T16:59:52.100Z,34.88
2022-07-29T17:02:19.043Z,34.79
2022-07-29T17:04:45.824Z,34.76
2022-07-29T17:07:13.024Z,34.77
2022-07-29T17:09:39.803Z,34.69
2022-07-29T17:12:06.655Z,34.48
2022-07-29T17:14:33.678Z,34.45
2022-07-29T17:17:02.610Z,34.46
2022-07-29T17:19:30.844Z,34.42
2022-07-29T17:22:05.012Z,34.26
2022-07-29T17:24:35.929Z,34.24
2022-07-29T17:27:02.974Z,34.26
2022-07-29T17:29:29.738Z,34.26
2022-07-29T17:31:57.743Z,34.21
2022-07-29T17:34:24.846Z,34.13
2022-07-29T17:36:51.586Z,34.05
2022-07-29T17:39:18.342Z,34.07
2022-07-29T17:41:46.878Z,34.05
2022-07-29T17:44:13.650Z,33.91
2022-07-29T17:46:40.510Z,33.82
2022-07-29T17:49:07.645Z,33.72
2022-07-29T17:51:34.478Z,33.71
2022-07-29T17:54:01.184Z,33.64
2022-07-29T17:56:28.223Z,33.54
2022-07-29T17:58:55.167Z,33.45
2022-07-29T18:01:23.693Z,33.37
2022-07-29T18:03:50.896Z,33.21
2022-07-29T18:06:17.623Z,33.17
2022-07-29T18:08:47.524Z,33.07
2022-07-29T18:11:15.094Z,33.06
2022-07-29T18:13:42.060Z,32.99
2022-07-29T18:16:09.362Z,32.77
2022-07-29T18:18:36.472Z,32.79
2022-07-29T18:21:03.503Z,32.76
2022-07-29T18:23:30.259Z,32.67
2022-07-29T18:25:57.370Z,32.44
2022-07-29T18:28:24.265Z,32.44
2022-07-29T18:30:52.432Z,32.42
2022-07-29T18:33:22.406Z,32.34
2022-07-29T18:35:49.948Z,32.27
2022-07-29T18:38:17.066Z,32.21
2022-07-29T18:40:45.919Z,32.15
2022-07-29T18:43:13.173Z,32.02
2022-07-29T18:45:39.961Z,32.06
2022-07-29T18:48:12.703Z,31.99
2022-07-29T18:50:40.530Z,31.81
2022-07-29T18:53:07.740Z,31.79
2022-07-29T18:55:34.761Z,31.67
2022-07-29T18:58:01.546Z,31.62
2022-07-29T19:00:28.591Z,31.62
2022-07-29T19:02:56.769Z,31.63
2022-07-29T19:05:24.423Z,31.58
2022-07-29T19:07:52.086Z,31.47
2022-07-29T19:10:18.808Z,31.46
2022-07-29T19:12:45.594Z,31.37
2022-07-29T19:15:12.941Z,31.30
2022-07-29T19:17:48.026Z,31.37
2022-07-29T19:20:15.935Z,31.20
2022-07-29T19:22:45.767Z,31.26
2022-07-29T19:25:15.946Z,31.31
2022-07-29T19:27:42.944Z,31.32
2022-07-29T19:30:09.883Z,31.28
2022-07-29T19:32:36.980Z,30.80
2022-07-29T19:35:24.628Z,31.13
2022-07-29T19:37:52.917Z,31.27
2022-07-29T19:40:20.095Z,31.21
2022-07-29T19:42:48.312Z,31.32
2022-07-29T19:45:15.511Z,31.35
2022-07-29T19:47:42.727Z,31.27
2022-07-29T19:50:09.889Z,31.27
2022-07-29T19:52:36.965Z,31.19
2022-07-29T19:55:07.591Z,30.98
2022-07-29T19:57:40.574Z,31.08
2022-07-29T20:00:11.295Z,30.93
2022-07-29T20:02:39.359Z,30.89
2022-07-29T20:05:06.711Z,30.98
2022-07-29T20:07:33.869Z,30.89
2022-07-29T20:10:00.925Z,30.62
2022-07-29T20:12:27.684Z,30.74
2022-07-29T20:14:54.412Z,30.85
2022-07-29T20:17:22.474Z,30.69
2022-07-29T20:19:49.846Z,30.66
2022-07-29T20:22:21.072Z,30.61
2022-07-29T20:24:48.534Z,30.50
2022-07-29T20:27:15.359Z,30.41
2022-07-29T20:29:42.095Z,30.40
2022-07-29T20:32:09.143Z,30.39
2022-07-29T20:34:35.978Z,30.41
2022-07-29T20:37:03.786Z,30.31
2022-07-29T20:39:30.840Z,30.26
2022-07-29T20:41:57.624Z,30.28
2022-07-29T20:44:24.469Z,30.26
2022-07-29T20:46:51.570Z,30.16
2022-07-29T20:49:18.462Z,30.18
2022-07-29T20:51:45.315Z,30.21
2022-07-29T20:54:12.531Z,30.13
2022-07-29T20:56:39.495Z,30.04
2022-07-29T20:59:06.358Z,30.05
2022-07-29T21:01:33.575Z,30.04
2022-07-29T21:04:00.933Z,30.04
2022-07-29T21:06:27.769Z,30.10
2022-07-29T21:08:57.857Z,29.81
2022-07-29T21:11:42.867Z,30.01
2022-07-29T21:14:41.291Z,30.02
2022-07-29T21:17:08.302Z,29.75
2022-07-29T21:19:35.701Z,29.83
2022-07-29T21:22:04.569Z,29.91
2022-07-29T21:24:31.377Z,30.00
2022-07-29T21:27:21.474Z,29.99
2022-07-29T21:29:48.730Z,29.20
2022-07-29T21:32:29.868Z,29.70
2022-07-29T21:34:57.903Z,29.84
2022-07-29T21:37:25.000Z,29.63
2022-07-29T21:39:51.781Z,29.37
2022-07-29T21:42:18.571Z,29.71
2022-07-29T21:44:45.567Z,29.69
2022-07-29T21:47:12.414Z,29.80
2022-07-29T21:49:39.326Z,29.77
2022-07-29T21:52:07.901Z,29.77
2022-07-29T21:54:35.036Z,29.82
2022-07-29T21:57:02.929Z,29.78
2022-07-29T21:59:30.600Z,29.64
2022-07-29T22:02:00.881Z,29.61
2022-07-29T22:04:29.334Z,29.52
2022-07-29T22:06:56.344Z,29.61
2022-07-29T22:09:23.382Z,29.62
2022-07-29T22:11:50.511Z,29.45
2022-07-29T22:14:18.365Z,29.49
2022-07-29T22:16:45.762Z,29.50
2022-07-29T22:19:12.955Z,29.46
2022-07-29T22:21:39.884Z,29.42
2022-07-29T22:24:06.919Z,29.24
2022-07-29T22:26:36.712Z,29.16
2022-07-29T22:29:03.588Z,29.14
2022-07-29T22:31:30.319Z,29.29
2022-07-29T22:33:57.377Z,29.23
2022-07-29T22:36:24.122Z,29.02
2022-07-29T22:38:52.129Z,29.00
2022-07-29T22:41:19.239Z,28.95
2022-07-29T22:43:45.980Z,28.92
2022-07-29T22:46:12.759Z,29.03
2022-07-29T22:48:39.856Z,28.92
2022-07-29T22:51:06.650Z,28.95
2022-07-29T22:53:33.490Z,28.89
2022-07-29T22:56:00.460Z,28.74
2022-07-29T22:58:27.203Z,28.64
2022-07-29T23:00:54.157Z,28.68
2022-07-29T23:03:21.485Z,28.72
2022-07-29T23:05:48.398Z,28.73
2022-07-29T23:08:15.108Z,28.64
2022-07-29T23:10:42.100Z,28.79
2022-07-29T23:13:08.816Z,28.50
2022-07-29T23:15:35.557Z,28.63
2022-07-29T23:18:02.573Z,28.77
2022-07-29T23:20:29.303Z,28.77
2022-07-29T23:22:56.079Z,28.76
2022-07-29T23:25:24.404Z,28.79
2022-07-29T23:27:51.151Z,28.75
2022-07-29T23:30:17.919Z,28.90
2022-07-29T23:32:44.925Z,28.81
2022-07-29T23:35:11.684Z,28.83
2022-07-29T23:37:38.442Z,28.76
2022-07-29T23:40:06.627Z,28.78
2022-07-29T23:42:38.441Z,28.46
2022-07-29T23:45:05.790Z,28.69
2022-07-29T23:47:32.537Z,28.57
2022-07-29T23:49:59.638Z,28.67
2022-07-29T23:52:26.744Z,28.46
2022-07-29T23:54:53.639Z,28.41
2022-07-29T23:57:24.416Z,28.39
2022-07-29T23:59:51.465Z,28.39
